< < Back
Terminal Aerodrome Forecast


Current Version              Previous Versions:   1  2  3  4  5  6  7  8  9  

Terminal Aerodrome Forecast

011
FTUS42 KGSP 010211 AAB
TAFGSP
TAF AMD
KGSP 010211Z 0102/0124 26006KT P6SM FEW060
     FM010700 28004KT P6SM SCT060
     FM010800 34003KT P6SM SCT060
     FM011500 04007KT P6SM FEW060
     FM012000 10004KT P6SM FEW060=

Latest METAR

892
SAUS70 KWBC 020400
MTRGSP
METAR KGSP 020353Z AUTO 12005KT 10SM CLR 14/04 A3017 RMK AO2 SLP208
T01440039


USA.gov is the U.S. government's official web portal to all federal, state and local government web resources and services.